Time;durP1;ratioP1;P1;durP2;ratioP2;P2;SDS_P1;SDS_P2;PMS_P1;PMS_P2;Temp;Humidity;BMP_temperature;BMP_pressure;BME280_temperature;BME280_humidity;BME280_pressure;Samples;Min_cycle;Max_cycle;Signal;HPM_P1;HPM_P2
2022/07/27 00:01:45;;;;;;;1.70;1.50;;;19.20;98.00;;;;;;5032582;28;20454;-71
2022/07/27 00:04:12;;;;;;;3.10;1.97;;;19.40;98.00;;;;;;5032581;28;20463;-71
2022/07/27 00:06:40;;;;;;;2.17;1.80;;;19.20;98.00;;;;;;5032393;28;20849;-71
2022/07/27 00:09:07;;;;;;;2.30;1.80;;;19.40;98.00;;;;;;5014556;28;20486;-70
2022/07/27 00:11:36;;;;;;;2.07;1.60;;;19.60;98.00;;;;;;5014817;28;20463;-70
2022/07/27 00:14:03;;;;;;;2.17;1.70;;;19.70;98.00;;;;;;5031952;28;20459;-70
2022/07/27 00:16:30;;;;;;;2.27;2.00;;;19.70;98.00;;;;;;5032359;28;20945;-71
2022/07/27 00:18:57;;;;;;;2.10;1.77;;;19.60;98.00;;;;;;5032175;28;20464;-72
2022/07/27 00:21:25;;;;;;;2.00;1.60;;;19.60;98.00;;;;;;5032215;28;20462;-68
2022/07/27 00:23:53;;;;;;;2.40;1.80;;;19.70;98.00;;;;;;5032218;28;20509;-71
2022/07/27 00:26:20;;;;;;;2.80;1.83;;;19.80;98.00;;;;;;5032051;28;20486;-70
2022/07/27 00:28:51;;;;;;;2.90;2.17;;;19.70;98.00;;;;;;5032156;28;20463;-71
2022/07/27 00:31:18;;;;;;;1.90;1.80;;;19.50;98.00;;;;;;5032579;28;20545;-70
2022/07/27 00:33:46;;;;;;;1.90;1.63;;;19.30;98.00;;;;;;5032325;28;20998;-71
2022/07/27 00:36:13;;;;;;;3.63;1.90;;;19.30;98.00;;;;;;5032210;28;20564;-71
2022/07/27 00:38:40;;;;;;;1.80;1.73;;;19.30;98.00;;;;;;5031971;28;20513;-69
2022/07/27 00:41:07;;;;;;;3.13;2.20;;;19.20;98.00;;;;;;5031891;28;20466;-71
2022/07/27 00:46:31;;;;;;;2.33;1.87;;;19.10;98.00;;;;;;5150186;27;20548;-71
2022/07/27 00:48:58;;;;;;;2.30;1.77;;;18.90;98.00;;;;;;5128314;28;20458;-71
2022/07/27 00:51:26;;;;;;;2.20;1.77;;;18.80;98.00;;;;;;5129430;28;20804;-70
2022/07/27 00:53:54;;;;;;;2.07;1.93;;;18.60;98.00;;;;;;5128190;28;20454;-71
2022/07/27 00:56:22;;;;;;;2.33;1.90;;;18.60;98.00;;;;;;5129159;28;20449;-70
2022/07/27 00:58:51;;;;;;;2.43;2.03;;;18.60;98.00;;;;;;5129391;28;20454;-72
2022/07/27 01:01:19;;;;;;;2.50;1.90;;;18.60;98.00;;;;;;5129221;28;20528;-72
2022/07/27 01:03:48;;;;;;;2.50;1.90;;;18.90;98.00;;;;;;5129319;27;20446;-70
2022/07/27 01:06:16;;;;;;;2.17;1.83;;;18.90;98.00;;;;;;5128976;28;20999;-70
2022/07/27 01:08:43;;;;;;;2.57;2.00;;;19.00;98.00;;;;;;5128994;27;20455;-69
2022/07/27 01:11:11;;;;;;;1.90;1.73;;;19.00;98.00;;;;;;5127953;28;20454;-72
2022/07/27 01:13:38;;;;;;;2.00;1.70;;;19.10;98.00;;;;;;5129048;28;20823;-69
2022/07/27 01:16:07;;;;;;;2.33;1.80;;;19.00;98.00;;;;;;5128943;28;20450;-69
2022/07/27 01:18:36;;;;;;;2.67;2.00;;;19.10;98.00;;;;;;5128711;28;20486;-71
2022/07/27 01:21:07;;;;;;;2.33;2.10;;;19.00;98.00;;;;;;5128896;28;20450;-71
2022/07/27 01:23:36;;;;;;;2.37;1.70;;;18.90;98.00;;;;;;5128897;28;20523;-69
2022/07/27 01:26:06;;;;;;;2.47;1.50;;;18.60;98.00;;;;;;5128779;28;20492;-71
2022/07/27 01:28:33;;;;;;;1.97;1.63;;;18.40;98.00;;;;;;5128783;28;20461;-71
2022/07/27 01:31:07;;;;;;;2.43;2.00;;;18.20;98.00;;;;;;5129022;27;20518;-69
2022/07/27 01:33:34;;;;;;;2.60;2.10;;;18.10;98.00;;;;;;5128928;28;20461;-71
2022/07/27 01:36:04;;;;;;;2.60;1.87;;;18.00;98.00;;;;;;5128555;28;20466;-69
2022/07/27 01:38:31;;;;;;;3.13;1.87;;;17.90;98.00;;;;;;5128661;28;20458;-69
2022/07/27 01:40:59;;;;;;;2.30;1.70;;;17.80;98.00;;;;;;5127580;28;20446;-69
2022/07/27 01:43:26;;;;;;;2.47;2.00;;;17.80;98.00;;;;;;5128588;28;20727;-71
2022/07/27 01:45:54;;;;;;;2.97;2.07;;;17.90;98.00;;;;;;5126667;28;20494;-71
2022/07/27 01:48:21;;;;;;;2.30;1.80;;;17.80;98.00;;;;;;5128393;27;20462;-70
2022/07/27 01:50:49;;;;;;;1.80;1.60;;;17.90;98.00;;;;;;5127970;28;20461;-69
2022/07/27 01:53:20;;;;;;;2.17;1.80;;;17.90;98.00;;;;;;5128494;28;20791;-70
2022/07/27 01:55:47;;;;;;;1.80;1.60;;;18.10;98.00;;;;;;5124966;28;20456;-70
2022/07/27 01:58:16;;;;;;;2.73;1.80;;;18.10;98.00;;;;;;5114352;28;20504;-70
2022/07/27 02:00:43;;;;;;;3.30;1.83;;;18.10;98.00;;;;;;5114758;28;20466;-72
2022/07/27 02:03:12;;;;;;;2.53;1.90;;;18.10;98.00;;;;;;5113172;28;20508;-71
2022/07/27 02:05:39;;;;;;;3.40;2.07;;;18.00;98.00;;;;;;5114240;28;20482;-70
2022/07/27 02:08:07;;;;;;;3.00;2.00;;;17.80;98.00;;;;;;5114562;28;20467;-70
2022/07/27 02:10:36;;;;;;;2.10;1.80;;;17.70;98.00;;;;;;5114279;28;20447;-71
2022/07/27 02:13:02;;;;;;;1.90;1.40;;;17.60;98.00;;;;;;5114237;28;20451;-70
2022/07/27 02:15:31;;;;;;;2.43;1.90;;;17.60;98.00;;;;;;5114396;28;20831;-69
2022/07/27 02:17:58;;;;;;;2.07;1.77;;;17.70;98.00;;;;;;5113588;28;20462;-71
2022/07/27 02:20:26;;;;;;;2.60;1.90;;;17.90;98.00;;;;;;5112792;28;20447;-70
2022/07/27 02:22:53;;;;;;;2.60;1.87;;;18.00;98.00;;;;;;5114039;28;20451;-72
2022/07/27 02:25:20;;;;;;;2.23;1.60;;;18.00;98.00;;;;;;5113922;28;20528;-70
2022/07/27 02:27:48;;;;;;;4.67;2.10;;;18.00;98.00;;;;;;5113923;28;20960;-70
2022/07/27 02:30:15;;;;;;;1.93;1.77;;;18.20;98.00;;;;;;5113991;28;20458;-70
2022/07/27 02:32:51;;;;;;;2.23;1.83;;;18.00;98.00;;;;;;5114125;28;20850;-72
2022/07/27 02:35:19;;;;;;;2.03;1.50;;;17.60;98.00;;;;;;5113951;28;20450;-67
2022/07/27 02:37:46;;;;;;;1.77;1.60;;;17.50;98.00;;;;;;5113840;28;20454;-68
2022/07/27 02:40:15;;;;;;;2.33;1.73;;;17.30;98.00;;;;;;5113730;28;20466;-68
2022/07/27 02:42:43;;;;;;;2.07;1.90;;;17.20;98.00;;;;;;5113576;28;20459;-67
2022/07/27 02:45:11;;;;;;;2.37;1.90;;;17.00;98.00;;;;;;5113483;28;20863;-68
2022/07/27 02:47:38;;;;;;;3.10;2.13;;;16.90;98.00;;;;;;5113518;28;20451;-69
2022/07/27 02:50:09;;;;;;;2.40;1.83;;;16.90;98.00;;;;;;5113573;28;20826;-69
2022/07/27 02:52:36;;;;;;;2.90;1.90;;;16.90;98.00;;;;;;5113450;28;20544;-70
2022/07/27 02:55:06;;;;;;;2.13;1.70;;;16.80;98.00;;;;;;5112190;28;20470;-69
2022/07/27 02:57:34;;;;;;;3.10;2.27;;;16.80;98.00;;;;;;5113351;28;20454;-70
2022/07/27 03:00:03;;;;;;;1.80;1.43;;;16.80;98.00;;;;;;5113390;28;20455;-70
2022/07/27 03:02:31;;;;;;;2.47;2.10;;;16.70;98.00;;;;;;5113347;28;20815;-72
2022/07/27 03:04:58;;;;;;;1.90;1.50;;;16.70;98.00;;;;;;5113401;28;20580;-71
2022/07/27 03:07:27;;;;;;;1.97;1.60;;;16.90;98.00;;;;;;5112782;28;20833;-70
2022/07/27 03:09:54;;;;;;;2.43;1.83;;;17.00;98.00;;;;;;5112924;28;20455;-70
2022/07/27 03:12:31;;;;;;;2.17;1.73;;;17.30;98.00;;;;;;5113206;28;20876;-72
2022/07/27 03:14:58;;;;;;;6.47;3.90;;;17.20;98.00;;;;;;5113164;28;20873;-71
2022/07/27 03:17:25;;;;;;;7.10;3.33;;;17.20;98.00;;;;;;5112876;28;20455;-69
2022/07/27 03:19:52;;;;;;;3.43;2.30;;;17.30;98.00;;;;;;5112792;28;20462;-70
2022/07/27 03:22:19;;;;;;;2.00;1.57;;;17.20;98.00;;;;;;5112888;28;20495;-69
2022/07/27 03:24:48;;;;;;;2.10;1.57;;;17.30;98.00;;;;;;5112781;28;20888;-70
2022/07/27 03:27:15;;;;;;;2.50;1.70;;;17.50;98.00;;;;;;5111429;28;20466;-70
2022/07/27 03:29:47;;;;;;;3.50;1.97;;;17.50;98.00;;;;;;5112797;28;20451;-69
2022/07/27 03:32:14;;;;;;;2.23;1.60;;;17.30;98.00;;;;;;5111703;28;20447;-69
2022/07/27 03:34:44;;;;;;;3.27;1.97;;;17.20;98.00;;;;;;5112797;28;20455;-70
2022/07/27 03:37:11;;;;;;;4.20;2.10;;;17.20;98.00;;;;;;5112934;28;20459;-70
2022/07/27 03:39:38;;;;;;;1.90;1.60;;;17.20;98.00;;;;;;5112712;28;20457;-70
2022/07/27 03:42:07;;;;;;;1.90;1.73;;;17.20;98.00;;;;;;5112689;28;20822;-70
2022/07/27 03:44:34;;;;;;;2.87;1.60;;;17.30;98.00;;;;;;5112396;27;20486;-71
2022/07/27 03:47:01;;;;;;;3.80;2.10;;;17.50;98.00;;;;;;5112397;28;20546;-69
2022/07/27 03:49:28;;;;;;;3.17;2.30;;;17.60;98.00;;;;;;5112648;28;20451;-70
2022/07/27 03:51:56;;;;;;;1.97;1.80;;;17.60;98.00;;;;;;5112094;28;20463;-69
2022/07/27 03:54:23;;;;;;;1.77;1.50;;;17.50;98.00;;;;;;5112465;28;20458;-69
2022/07/27 03:56:50;;;;;;;4.00;2.20;;;17.60;98.00;;;;;;5112367;28;20454;-69
2022/07/27 03:59:19;;;;;;;2.80;1.87;;;17.60;98.00;;;;;;5112259;28;20455;-69
2022/07/27 04:01:46;;;;;;;3.43;1.80;;;17.60;98.00;;;;;;5112021;28;20820;-70
2022/07/27 04:04:14;;;;;;;2.47;2.10;;;17.60;98.00;;;;;;5112102;28;20971;-69
2022/07/27 04:06:41;;;;;;;2.37;1.80;;;17.90;98.00;;;;;;5111884;28;20493;-69
2022/07/27 04:09:08;;;;;;;2.57;2.10;;;17.80;98.00;;;;;;5112043;28;20936;-70
2022/07/27 04:11:35;;;;;;;3.50;1.97;;;17.70;98.00;;;;;;5110691;28;20455;-69
2022/07/27 04:14:06;;;;;;;2.53;2.20;;;17.50;98.00;;;;;;5112132;28;20458;-69
2022/07/27 04:16:35;;;;;;;3.63;2.10;;;17.50;98.00;;;;;;5110712;28;20471;-70
2022/07/27 04:19:02;;;;;;;2.93;1.77;;;17.50;98.00;;;;;;5111712;28;20836;-70
2022/07/27 04:21:29;;;;;;;3.37;2.00;;;17.60;98.00;;;;;;5111849;28;20455;-68
2022/07/27 04:23:56;;;;;;;2.27;1.93;;;17.50;98.00;;;;;;5111902;28;20459;-69
2022/07/27 04:26:23;;;;;;;2.10;1.67;;;17.40;98.00;;;;;;5110640;28;21080;-68
2022/07/27 04:28:50;;;;;;;1.93;1.60;;;17.30;98.00;;;;;;5111843;28;20739;-70
2022/07/27 04:31:18;;;;;;;2.10;2.00;;;17.30;98.00;;;;;;5111867;28;20447;-70
2022/07/27 04:33:47;;;;;;;2.23;1.87;;;17.30;98.00;;;;;;5112076;28;21007;-70
2022/07/27 04:36:14;;;;;;;3.50;2.17;;;17.60;98.00;;;;;;5111816;28;20853;-68
2022/07/27 04:38:41;;;;;;;2.93;2.00;;;17.60;98.00;;;;;;5111719;28;20455;-70
2022/07/27 04:41:08;;;;;;;2.33;1.97;;;17.80;98.00;;;;;;5110424;28;20462;-70
2022/07/27 04:43:35;;;;;;;2.70;1.67;;;17.80;98.00;;;;;;5111596;28;20447;-69
2022/07/27 04:46:03;;;;;;;3.20;2.23;;;17.80;98.00;;;;;;5111371;28;20996;-69
2022/07/27 04:48:31;;;;;;;2.80;2.10;;;17.80;98.00;;;;;;5110347;28;20482;-69
2022/07/27 04:50:59;;;;;;;2.93;2.10;;;17.90;98.00;;;;;;5110303;28;20862;-70
2022/07/27 04:53:28;;;;;;;2.70;2.13;;;17.90;98.00;;;;;;5111639;28;20458;-69
2022/07/27 04:55:55;;;;;;;2.00;1.80;;;18.00;98.00;;;;;;5111394;28;20459;-70
2022/07/27 04:58:22;;;;;;;2.10;1.80;;;18.00;98.00;;;;;;5110290;28;20450;-70
2022/07/27 05:00:49;;;;;;;2.37;1.80;;;18.00;98.00;;;;;;5110111;28;20447;-69
2022/07/27 05:03:16;;;;;;;3.90;2.47;;;17.80;98.00;;;;;;5111317;28;20459;-69
2022/07/27 05:05:43;;;;;;;2.57;2.00;;;17.70;98.00;;;;;;5111231;28;20475;-69
2022/07/27 05:08:12;;;;;;;2.80;2.10;;;17.70;98.00;;;;;;5110171;28;21006;-70
2022/07/27 05:10:40;;;;;;;2.13;1.87;;;17.70;98.00;;;;;;5111214;28;20484;-70
2022/07/27 05:13:07;;;;;;;2.77;1.83;;;17.80;98.00;;;;;;5111385;28;20459;-70
2022/07/27 05:15:34;;;;;;;6.10;2.00;;;17.90;98.00;;;;;;5110025;28;20463;-69
2022/07/27 05:18:02;;;;;;;3.63;1.93;;;17.90;98.00;;;;;;5111268;28;20451;-68
2022/07/27 05:20:29;;;;;;;4.27;2.50;;;18.00;98.00;;;;;;5110764;28;20471;-70
2022/07/27 05:22:56;;;;;;;3.00;2.23;;;18.10;98.00;;;;;;5111211;28;20447;-70
2022/07/27 05:25:25;;;;;;;3.00;2.20;;;18.20;98.00;;;;;;5111312;28;20454;-72
2022/07/27 05:27:52;;;;;;;3.87;2.20;;;18.20;98.00;;;;;;5111201;28;20571;-69
2022/07/27 05:30:20;;;;;;;2.83;1.83;;;18.30;98.00;;;;;;5111254;28;20462;-69
2022/07/27 05:32:48;;;;;;;4.07;2.40;;;18.40;98.00;;;;;;5114403;28;20455;-70
2022/07/27 05:35:15;;;;;;;4.03;2.43;;;18.50;98.00;;;;;;5115281;28;20465;-69
2022/07/27 05:37:42;;;;;;;2.10;1.70;;;18.60;98.00;;;;;;5114853;28;20461;-69
2022/07/27 05:40:11;;;;;;;2.50;1.93;;;18.70;98.00;;;;;;5115020;28;20481;-71
2022/07/27 05:42:42;;;;;;;2.23;1.77;;;18.80;98.00;;;;;;5114903;28;20482;-70
2022/07/27 05:45:10;;;;;;;2.40;1.90;;;19.20;98.00;;;;;;5114565;28;20554;-68
2022/07/27 05:47:38;;;;;;;3.60;2.20;;;19.30;98.00;;;;;;5114649;28;20974;-68
2022/07/27 05:50:06;;;;;;;3.43;1.90;;;19.30;98.00;;;;;;5114654;28;20463;-70
2022/07/27 05:52:33;;;;;;;3.43;2.17;;;19.20;98.00;;;;;;5114668;28;20462;-68
2022/07/27 05:55:00;;;;;;;2.77;2.10;;;19.20;98.00;;;;;;5114608;28;20459;-69
2022/07/27 05:57:27;;;;;;;4.10;2.30;;;19.10;98.00;;;;;;5114670;28;20910;-68
2022/07/27 05:59:57;;;;;;;3.40;2.13;;;19.20;98.00;;;;;;5114337;28;20455;-68
2022/07/27 06:02:26;;;;;;;2.87;1.80;;;19.20;98.00;;;;;;5114343;28;20451;-68
2022/07/27 06:04:53;;;;;;;2.53;2.07;;;19.30;98.00;;;;;;5114482;28;20516;-69
2022/07/27 06:10:06;;;;;;;3.27;2.03;;;19.60;98.00;;;;;;5114409;28;20438;-68
2022/07/27 06:12:38;;;;;;;4.53;2.50;;;19.40;98.00;;;;;;5114392;28;20447;-69
2022/07/27 06:15:08;;;;;;;2.60;2.00;;;19.40;98.00;;;;;;5114194;28;20466;-69
2022/07/27 06:17:35;;;;;;;2.93;2.10;;;19.60;98.00;;;;;;5114262;28;20462;-68
2022/07/27 06:20:05;;;;;;;1.87;1.70;;;19.60;98.00;;;;;;5114152;28;20457;-68
2022/07/27 06:22:43;;;;;;;3.60;2.20;;;19.70;98.00;;;;;;5114083;28;20458;-68
2022/07/27 06:25:11;;;;;;;3.77;2.43;;;19.80;98.00;;;;;;5114206;28;20467;-67
2022/07/27 06:27:38;;;;;;;2.50;2.13;;;19.80;98.00;;;;;;5114012;28;21000;-67
2022/07/27 06:30:08;;;;;;;3.50;2.60;;;19.80;98.00;;;;;;5113938;28;20455;-68
2022/07/27 06:32:36;;;;;;;3.10;2.30;;;19.80;98.00;;;;;;5113852;28;20457;-68
2022/07/27 06:35:07;;;;;;;3.10;2.10;;;19.80;98.00;;;;;;5114117;28;20463;-68
2022/07/27 06:37:34;;;;;;;4.10;2.70;;;19.70;98.00;;;;;;5114054;28;20502;-67
2022/07/27 06:40:02;;;;;;;3.90;2.57;;;19.80;98.00;;;;;;5113753;28;20451;-68
2022/07/27 06:42:29;;;;;;;3.70;2.60;;;19.90;98.00;;;;;;5113737;28;20470;-68
2022/07/27 06:44:56;;;;;;;3.97;2.37;;;20.10;98.00;;;;;;5113650;28;20459;-67
2022/07/27 06:47:25;;;;;;;3.00;2.40;;;20.20;98.00;;;;;;5113512;27;20842;-68
2022/07/27 06:49:52;;;;;;;3.23;2.23;;;20.20;98.00;;;;;;5112390;28;20463;-69
2022/07/27 06:52:19;;;;;;;4.23;2.20;;;20.10;98.00;;;;;;5113712;28;20802;-68
2022/07/27 06:54:46;;;;;;;3.63;2.20;;;20.00;98.00;;;;;;5113493;28;20457;-68
2022/07/27 06:57:18;;;;;;;2.97;2.43;;;19.90;98.00;;;;;;5113313;28;20481;-68
2022/07/27 06:59:47;;;;;;;2.97;2.20;;;20.00;98.00;;;;;;5113425;28;20954;-68
2022/07/27 07:02:14;;;;;;;4.00;2.27;;;20.10;98.00;;;;;;5113326;28;20455;-68
2022/07/27 07:04:42;;;;;;;3.93;2.60;;;20.10;98.00;;;;;;5113336;28;20451;-68
2022/07/27 07:07:09;;;;;;;7.30;2.40;;;20.30;98.00;;;;;;5111753;28;20482;-66
2022/07/27 07:09:38;;;;;;;3.77;2.40;;;20.60;98.00;;;;;;5113273;28;20470;-66
2022/07/27 07:12:06;;;;;;;3.37;2.60;;;20.70;98.00;;;;;;5113154;28;20451;-67
2022/07/27 07:14:33;;;;;;;4.43;2.80;;;20.70;98.00;;;;;;5113163;28;20830;-67
2022/07/27 07:17:00;;;;;;;6.53;2.40;;;20.90;98.00;;;;;;5113030;28;20503;-66
2022/07/27 07:19:28;;;;;;;4.47;2.83;;;21.00;98.00;;;;;;5112910;28;20462;-67
2022/07/27 07:21:56;;;;;;;3.50;2.47;;;21.00;98.00;;;;;;5111684;28;20479;-67
2022/07/27 07:24:23;;;;;;;3.30;2.40;;;20.90;98.00;;;;;;5112936;28;20872;-66
2022/07/27 07:26:50;;;;;;;3.97;2.73;;;20.80;98.00;;;;;;5112743;28;20478;-67
2022/07/27 07:29:17;;;;;;;3.43;2.40;;;20.90;98.00;;;;;;5111472;28;20458;-66
2022/07/27 07:31:45;;;;;;;4.40;2.30;;;21.00;98.00;;;;;;5112881;28;20992;-66
2022/07/27 07:34:12;;;;;;;5.33;2.87;;;21.20;98.00;;;;;;5113054;28;20466;-69
2022/07/27 07:36:39;;;;;;;4.00;2.30;;;21.30;98.00;;;;;;5110757;27;20470;-65
2022/07/27 07:39:08;;;;;;;4.03;2.70;;;21.40;98.00;;;;;;5119755;27;20482;-65
2022/07/27 07:41:36;;;;;;;4.10;2.50;;;21.60;98.00;;;;;;5130822;27;20490;-65
2022/07/27 07:44:05;;;;;;;4.27;2.33;;;21.60;98.00;;;;;;5110588;27;20997;-65
2022/07/27 07:46:33;;;;;;;3.30;2.00;;;21.80;98.00;;;;;;5129885;27;20748;-65
2022/07/27 07:49:00;;;;;;;4.90;2.50;;;22.00;98.00;;;;;;5109000;27;20467;-65
2022/07/27 07:51:28;;;;;;;3.70;2.30;;;22.30;98.00;;;;;;5117091;27;21002;-65
2022/07/27 07:53:56;;;;;;;4.27;2.80;;;22.30;98.00;;;;;;5120389;27;20482;-66
2022/07/27 07:56:24;;;;;;;4.20;2.80;;;22.40;98.00;;;;;;5111361;27;20478;-65
2022/07/27 07:58:51;;;;;;;5.30;2.80;;;22.70;98.00;;;;;;5120300;27;20459;-65
2022/07/27 08:01:19;;;;;;;3.60;2.47;;;22.50;98.00;;;;;;5120321;27;20467;-65
2022/07/27 08:03:46;;;;;;;5.87;2.97;;;22.40;98.00;;;;;;5129975;27;20461;-65
2022/07/27 08:06:14;;;;;;;3.87;2.40;;;22.70;98.00;;;;;;5129928;27;20457;-64
2022/07/27 08:08:41;;;;;;;3.30;2.40;;;23.00;97.80;;;;;;5111250;27;20487;-65
2022/07/27 08:11:09;;;;;;;17.60;2.27;;;22.90;97.20;;;;;;5119938;27;20450;-65
2022/07/27 08:13:37;;;;;;;5.87;2.73;;;23.00;97.70;;;;;;5118922;27;21143;-65
2022/07/27 08:16:06;;;;;;;9.33;2.87;;;23.20;96.90;;;;;;5119883;27;20866;-65
2022/07/27 08:18:33;;;;;;;5.90;2.80;;;23.00;97.60;;;;;;5128770;27;20461;-65
2022/07/27 08:21:02;;;;;;;4.67;2.33;;;23.00;97.40;;;;;;5120019;27;20458;-65
2022/07/27 08:23:30;;;;;;;4.60;2.80;;;22.90;97.80;;;;;;5092653;28;20460;-65
2022/07/27 08:25:58;;;;;;;7.10;2.70;;;22.80;97.30;;;;;;5120613;27;20457;-64
2022/07/27 08:28:26;;;;;;;5.90;3.20;;;22.80;97.50;;;;;;5121025;27;20496;-64
2022/07/27 08:30:55;;;;;;;3.97;2.60;;;23.00;96.60;;;;;;5121583;27;20462;-65
2022/07/27 08:33:23;;;;;;;5.47;3.13;;;23.40;96.80;;;;;;5121475;27;20454;-64
2022/07/27 08:35:50;;;;;;;7.27;3.80;;;23.40;95.80;;;;;;5119192;27;20939;-65
2022/07/27 08:38:17;;;;;;;5.07;2.87;;;23.40;95.30;;;;;;5110608;28;20546;-65
2022/07/27 08:40:46;;;;;;;3.70;2.60;;;23.30;95.50;;;;;;5128293;27;20840;-65
2022/07/27 08:43:15;;;;;;;2.93;2.23;;;23.40;95.70;;;;;;5129310;27;20446;-65
2022/07/27 08:45:44;;;;;;;5.37;3.10;;;23.60;95.90;;;;;;5107558;28;20956;-71
2022/07/27 08:48:14;;;;;;;6.17;3.37;;;23.90;94.80;;;;;;5129250;27;20526;-72
2022/07/27 08:50:42;;;;;;;4.03;3.00;;;24.00;93.50;;;;;;5123413;28;20446;-72
2022/07/27 08:53:12;;;;;;;5.50;3.20;;;23.80;93.40;;;;;;5111200;28;20493;-73
2022/07/27 08:55:41;;;;;;;4.17;2.93;;;23.70;93.50;;;;;;5119254;28;20486;-73
2022/07/27 08:58:09;;;;;;;3.87;2.70;;;23.70;95.00;;;;;;5119809;28;20499;-72
2022/07/27 09:00:39;;;;;;;4.67;3.20;;;23.70;94.70;;;;;;5120214;28;20458;-72
2022/07/27 09:03:07;;;;;;;4.17;2.60;;;23.70;96.60;;;;;;5118799;28;20963;-72
2022/07/27 09:05:42;;;;;;;4.50;2.80;;;23.90;95.60;;;;;;5127623;27;20466;-72
2022/07/27 09:08:10;;;;;;;4.33;2.43;;;24.10;95.00;;;;;;5105539;27;21119;-73
2022/07/27 09:10:38;;;;;;;4.83;2.77;;;24.10;93.90;;;;;;5123349;27;20494;-72
2022/07/27 09:13:18;;;;;;;4.40;2.80;;;24.10;94.10;;;;;;5114323;27;20477;-72
2022/07/27 09:15:47;;;;;;;4.57;3.30;;;24.00;94.20;;;;;;5115687;27;20466;-72
2022/07/27 09:18:19;;;;;;;4.10;2.80;;;24.10;95.60;;;;;;5116227;27;20469;-73
2022/07/27 09:21:11;;;;;;;4.60;2.97;;;24.40;94.50;;;;;;5131757;27;20458;-72
2022/07/27 09:23:39;;;;;;;3.20;2.80;;;24.50;95.00;;;;;;5122916;27;20530;-73
2022/07/27 09:26:14;;;;;;;5.07;2.83;;;24.50;93.90;;;;;;5127595;27;20458;-72
2022/07/27 09:28:41;;;;;;;4.20;2.30;;;24.50;93.80;;;;;;5125061;27;20497;-73
2022/07/27 09:31:10;;;;;;;3.90;2.67;;;24.60;92.20;;;;;;5115240;27;20875;-72
2022/07/27 09:33:45;;;;;;;4.63;2.83;;;24.70;92.60;;;;;;5114282;27;20458;-72
2022/07/27 09:36:15;;;;;;;5.03;2.83;;;24.50;92.90;;;;;;5109818;27;20465;-72
2022/07/27 09:38:54;;;;;;;4.80;2.83;;;24.50;93.30;;;;;;5116933;27;20894;-72
2022/07/27 09:41:22;;;;;;;3.50;2.70;;;24.50;93.00;;;;;;5122310;27;20521;-72
2022/07/27 09:43:52;;;;;;;4.50;3.10;;;24.60;92.90;;;;;;5122427;27;20450;-71
2022/07/27 09:46:30;;;;;;;3.73;2.53;;;24.90;92.60;;;;;;5122363;27;20469;-72
2022/07/27 09:48:59;;;;;;;4.80;2.70;;;25.00;91.90;;;;;;5104335;28;20832;-73
2022/07/27 09:51:29;;;;;;;4.17;2.90;;;25.10;92.30;;;;;;5128746;27;20479;-71
2022/07/27 09:53:58;;;;;;;4.17;2.70;;;25.30;91.40;;;;;;5132302;27;20454;-72
2022/07/27 09:56:27;;;;;;;4.80;3.20;;;25.50;90.80;;;;;;5131711;27;20458;-69
2022/07/27 09:58:55;;;;;;;4.47;2.90;;;25.50;90.70;;;;;;5115374;28;20788;-70
2022/07/27 10:01:25;;;;;;;4.10;3.07;;;25.70;91.70;;;;;;5115313;28;20467;-69
2022/07/27 10:03:54;;;;;;;4.70;2.80;;;25.70;88.90;;;;;;5114875;28;20929;-69
2022/07/27 10:06:22;;;;;;;6.53;3.07;;;25.60;88.60;;;;;;5113985;28;20451;-69
2022/07/27 10:08:53;;;;;;;6.47;3.30;;;25.60;89.40;;;;;;5115013;28;20515;-69
2022/07/27 10:11:23;;;;;;;5.70;2.90;;;25.60;90.50;;;;;;5115070;28;20824;-70
2022/07/27 10:13:52;;;;;;;5.03;2.53;;;25.50;90.20;;;;;;5118802;27;20457;-70
2022/07/27 10:16:22;;;;;;;6.37;3.13;;;25.40;89.90;;;;;;5134948;27;20928;-69
2022/07/27 10:18:58;;;;;;;5.47;3.37;;;25.50;89.70;;;;;;5134554;27;20959;-69
2022/07/27 10:21:26;;;;;;;3.57;2.40;;;25.60;90.80;;;;;;5135264;27;20453;-70
2022/07/27 10:23:57;;;;;;;6.90;3.90;;;25.90;90.50;;;;;;5135192;27;20472;-70
2022/07/27 10:26:33;;;;;;;4.97;2.60;;;26.00;89.10;;;;;;5135178;27;20450;-69
2022/07/27 10:29:03;;;;;;;4.70;2.67;;;26.00;88.00;;;;;;5133979;27;20485;-70
2022/07/27 10:31:32;;;;;;;5.30;2.80;;;25.90;88.20;;;;;;5135356;27;20586;-69
2022/07/27 10:34:01;;;;;;;4.33;2.70;;;25.90;88.70;;;;;;5135356;27;20453;-69
2022/07/27 10:36:46;;;;;;;3.73;2.60;;;25.70;89.20;;;;;;5135440;27;20450;-69
2022/07/27 10:39:29;;;;;;;4.53;3.10;;;25.80;88.90;;;;;;5135308;27;20454;-62
2022/07/27 10:42:19;;;;;;;4.83;2.87;;;25.80;88.70;;;;;;5135331;27;20492;-64
2022/07/27 10:44:57;;;;;;;3.30;2.50;;;25.80;89.30;;;;;;5134619;27;20470;-63
2022/07/27 10:47:47;;;;;;;3.93;2.43;;;25.80;89.80;;;;;;5134862;27;20454;-63
2022/07/27 10:50:31;;;;;;;4.30;2.73;;;25.70;89.60;;;;;;5133395;27;20490;-64
2022/07/27 10:53:05;;;;;;;4.03;2.80;;;25.90;89.20;;;;;;5135021;27;20450;-64
2022/07/27 10:55:50;;;;;;;3.97;2.73;;;26.00;89.10;;;;;;5134527;27;20458;-62
2022/07/27 10:58:43;;;;;;;3.80;2.70;;;26.20;86.30;;;;;;5134799;27;21046;-63
2022/07/27 11:01:12;;;;;;;4.80;2.70;;;26.10;87.70;;;;;;5134303;27;20558;-64
2022/07/27 11:03:40;;;;;;;3.93;2.57;;;26.00;86.20;;;;;;5134622;27;20454;-63
2022/07/27 11:06:11;;;;;;;4.90;2.80;;;26.00;87.90;;;;;;5134648;27;21115;-62
2022/07/27 11:08:40;;;;;;;3.90;2.77;;;26.20;87.70;;;;;;5134405;27;20493;-62
2022/07/27 11:11:14;;;;;;;3.87;2.47;;;26.60;86.10;;;;;;5129670;27;20447;-65
2022/07/27 11:13:41;;;;;;;3.10;2.67;;;26.90;85.40;;;;;;5132393;27;20816;-65
2022/07/27 11:16:10;;;;;;;3.67;2.80;;;27.40;83.60;;;;;;5134593;27;20518;-65
2022/07/27 11:18:39;;;;;;;4.10;2.60;;;27.90;81.90;;;;;;5134431;27;20442;-65
2022/07/27 11:21:25;;;;;;;3.70;2.50;;;28.00;80.80;;;;;;5134458;27;20962;-64
2022/07/27 11:23:55;;;;;;;3.70;2.80;;;28.20;81.90;;;;;;5134515;27;20446;-64
2022/07/27 11:26:28;;;;;;;3.53;2.87;;;28.10;81.10;;;;;;5134591;27;20446;-63
2022/07/27 11:28:55;;;;;;;3.80;2.73;;;27.90;80.80;;;;;;5133521;27;20987;-64
2022/07/27 11:31:23;;;;;;;3.87;2.40;;;28.10;80.50;;;;;;5134377;27;20518;-64
2022/07/27 11:33:56;;;;;;;3.73;3.03;;;28.00;81.30;;;;;;5134629;27;20588;-64
2022/07/27 11:36:41;;;;;;;2.90;2.40;;;27.70;80.50;;;;;;5123651;27;20455;-64
2022/07/27 11:39:14;;;;;;;3.43;2.30;;;27.30;82.00;;;;;;5113542;28;20915;-69
2022/07/27 11:41:43;;;;;;;3.80;2.80;;;27.10;80.50;;;;;;5113653;28;20462;-69
2022/07/27 11:44:12;;;;;;;2.70;2.20;;;26.90;81.40;;;;;;5113224;28;20546;-69
2022/07/27 11:46:42;;;;;;;3.33;2.30;;;27.30;80.40;;;;;;5111913;28;20454;-69
2022/07/27 11:49:12;;;;;;;3.20;2.27;;;28.00;79.20;;;;;;5113363;28;20766;-69
2022/07/27 11:51:42;;;;;;;2.97;2.17;;;28.70;78.30;;;;;;5112849;28;20931;-69
2022/07/27 11:54:10;;;;;;;2.53;2.10;;;29.20;75.90;;;;;;5112831;28;20467;-70
2022/07/27 11:56:42;;;;;;;2.53;2.20;;;29.90;74.70;;;;;;5110712;28;20458;-70
2022/07/27 11:59:22;;;;;;;2.83;2.20;;;30.50;71.70;;;;;;5112955;28;20451;-70
2022/07/27 12:01:52;;;;;;;3.40;2.23;;;30.80;69.90;;;;;;5112712;28;20920;-70
2022/07/27 12:04:25;;;;;;;2.90;2.10;;;30.70;70.50;;;;;;5112960;28;20451;-70
2022/07/27 12:07:01;;;;;;;3.17;2.10;;;30.30;71.60;;;;;;5112584;28;20450;-70
2022/07/27 12:09:32;;;;;;;2.93;2.23;;;30.30;71.40;;;;;;5112876;28;20838;-70
2022/07/27 12:12:01;;;;;;;4.37;2.47;;;30.40;71.00;;;;;;5112582;27;20451;-70
2022/07/27 12:14:44;;;;;;;3.30;2.47;;;30.10;72.80;;;;;;5111897;27;20542;-70
2022/07/27 12:17:20;;;;;;;2.50;2.20;;;29.90;73.90;;;;;;5112288;28;20960;-69
2022/07/27 12:19:59;;;;;;;2.80;2.13;;;29.50;73.40;;;;;;5112955;28;20443;-70
2022/07/27 12:22:33;;;;;;;2.63;2.17;;;29.20;74.70;;;;;;5112650;28;20459;-69
2022/07/27 12:25:04;;;;;;;2.90;2.00;;;28.90;75.20;;;;;;5112636;28;20453;-69
2022/07/27 12:27:31;;;;;;;3.40;2.10;;;28.60;75.50;;;;;;5113203;28;20455;-70
2022/07/27 12:30:04;;;;;;;3.63;2.60;;;28.50;75.10;;;;;;5112494;28;20490;-70
2022/07/27 12:32:32;;;;;;;3.33;2.30;;;28.40;75.30;;;;;;5112303;28;20540;-70
2022/07/27 12:35:00;;;;;;;3.50;1.97;;;28.50;75.00;;;;;;5112638;28;20458;-70
2022/07/27 12:37:32;;;;;;;2.20;1.87;;;29.00;73.30;;;;;;5112214;28;20462;-65
2022/07/27 12:39:59;;;;;;;2.00;1.80;;;29.70;71.70;;;;;;5112336;28;20459;-72
2022/07/27 12:42:37;;;;;;;3.10;2.20;;;30.30;69.80;;;;;;5112345;28;20453;-64
2022/07/27 12:45:17;;;;;;;2.27;2.03;;;30.80;69.70;;;;;;5112591;28;20465;-68
2022/07/27 12:47:45;;;;;;;3.40;2.13;;;31.40;67.90;;;;;;5111729;28;20539;-68
2022/07/27 12:50:14;;;;;;;3.20;2.40;;;31.80;67.20;;;;;;5112302;28;20462;-67
2022/07/27 12:52:49;;;;;;;3.30;2.30;;;31.70;66.20;;;;;;5111674;28;20451;-70
2022/07/27 12:55:18;;;;;;;1.93;1.90;;;31.10;68.60;;;;;;5112234;28;20461;-69
2022/07/27 12:57:45;;;;;;;2.83;2.13;;;30.60;70.00;;;;;;5111830;28;20455;-69
2022/07/27 13:00:17;;;;;;;3.17;2.30;;;30.10;71.80;;;;;;5112224;28;20448;-69
2022/07/27 13:02:45;;;;;;;3.03;2.20;;;29.80;71.20;;;;;;5110675;28;20460;-70
2022/07/27 13:05:14;;;;;;;3.00;2.20;;;29.50;72.00;;;;;;5111844;28;20455;-69